Time;durP1;ratioP1;P1;durP2;ratioP2;P2;SDS_P1;SDS_P2;PMS_P1;PMS_P2;Temp;Humidity;BMP_temperature;BMP_pressure;BME280_temperature;BME280_humidity;BME280_pressure;Samples;Min_cycle;Max_cycle;Signal;HPM_P1;HPM_P2
2023/01/14 00:02:22;;;;;;;13.30;7.30;;;;;;;6.28;93.17;98792.20;107808;1308;22255;-41
2023/01/14 00:04:48;;;;;;;16.90;7.80;;;;;;;6.26;93.13;98793.53;107802;1308;22714;-41
2023/01/14 00:07:13;;;;;;;17.20;8.30;;;;;;;6.20;93.51;98797.98;107779;1308;22248;-40
2023/01/14 00:09:38;;;;;;;15.90;7.60;;;;;;;6.22;93.53;98800.67;107802;1308;22848;-40
2023/01/14 00:12:04;;;;;;;13.70;7.60;;;;;;;6.22;93.58;98805.22;107825;1308;22292;-39
2023/01/14 00:14:31;;;;;;;13.60;7.20;;;;;;;6.19;93.78;98797.67;107842;1308;22398;-40
2023/01/14 00:16:58;;;;;;;12.80;7.50;;;;;;;6.20;93.76;98801.50;107829;1308;22626;-40
2023/01/14 00:19:24;;;;;;;15.10;7.40;;;;;;;6.21;93.70;98799.01;107830;1308;22701;-39
2023/01/14 00:21:51;;;;;;;12.70;7.30;;;;;;;6.16;93.61;98801.65;107807;1308;22649;-38
2023/01/14 00:24:19;;;;;;;13.00;7.30;;;;;;;6.14;93.79;98805.71;107808;1308;23069;-40
2023/01/14 00:26:48;;;;;;;12.40;7.20;;;;;;;6.15;93.82;98810.38;107820;1308;22268;-39
2023/01/14 00:29:19;;;;;;;14.80;6.50;;;;;;;6.15;93.92;98810.20;107817;1308;22775;-39
2023/01/14 00:31:45;;;;;;;11.60;7.10;;;;;;;6.15;93.92;98811.79;107795;1308;22228;-38
2023/01/14 00:34:12;;;;;;;10.70;7.20;;;;;;;6.17;93.78;98816.39;107809;1308;22972;-39
2023/01/14 00:36:37;;;;;;;13.10;6.20;;;;;;;6.20;93.63;98815.73;107799;1308;22420;-39
2023/01/14 00:39:03;;;;;;;12.80;6.50;;;;;;;6.21;93.53;98819.70;107840;1308;22469;-39
2023/01/14 00:41:29;;;;;;;12.90;7.10;;;;;;;6.24;93.35;98823.06;107800;1308;22269;-40
2023/01/14 00:43:56;;;;;;;11.70;6.30;;;;;;;6.28;93.35;98824.77;107777;1308;22371;-37
2023/01/14 00:46:27;;;;;;;12.30;6.50;;;;;;;6.30;93.16;98831.99;107808;1308;22315;-37
2023/01/14 00:48:53;;;;;;;11.00;6.40;;;;;;;6.33;92.93;98837.27;107829;1308;23123;-38
2023/01/14 00:51:19;;;;;;;12.00;6.30;;;;;;;6.32;92.72;98833.47;107797;1308;22285;-37
2023/01/14 00:53:46;;;;;;;11.00;5.90;;;;;;;6.36;92.60;98834.50;107796;1308;22413;-37
2023/01/14 00:56:13;;;;;;;10.60;6.10;;;;;;;6.36;92.29;98833.47;107817;1308;22374;-41
2023/01/14 00:58:38;;;;;;;11.00;6.00;;;;;;;6.34;91.97;98830.94;107786;1308;22041;-42
2023/01/14 01:01:04;;;;;;;10.30;5.60;;;;;;;6.32;91.86;98832.27;107785;1308;22246;-38
2023/01/14 01:03:31;;;;;;;11.50;6.00;;;;;;;6.30;91.45;98833.42;107809;1308;23215;-39
2023/01/14 01:05:56;;;;;;;11.40;5.80;;;;;;;6.32;91.39;98835.72;107853;1308;22500;-39
2023/01/14 01:08:22;;;;;;;11.10;5.70;;;;;;;6.36;91.37;98840.25;107824;1308;22248;-38
2023/01/14 01:10:50;;;;;;;11.50;5.00;;;;;;;6.35;91.00;98838.42;107848;1308;22251;-39
2023/01/14 01:13:17;;;;;;;9.60;5.20;;;;;;;6.31;90.82;98840.46;107832;1308;22421;-40
2023/01/14 01:15:43;;;;;;;8.20;5.10;;;;;;;6.32;90.63;98836.80;107818;1308;22228;-39
2023/01/14 01:18:11;;;;;;;10.20;5.30;;;;;;;6.30;90.46;98838.62;107825;1308;22880;-40
2023/01/14 01:20:37;;;;;;;12.10;5.00;;;;;;;6.34;90.54;98842.95;107818;1308;22521;-38
2023/01/14 01:23:02;;;;;;;7.00;4.60;;;;;;;6.34;89.95;98841.75;107825;1308;23024;-38
2023/01/14 01:25:28;;;;;;;8.10;4.60;;;;;;;6.34;89.58;98847.67;107818;1308;22241;-38
2023/01/14 01:27:55;;;;;;;9.30;4.70;;;;;;;6.33;89.65;98847.18;107840;1308;23320;-43
2023/01/14 01:30:20;;;;;;;8.40;4.10;;;;;;;6.30;89.31;98848.38;107834;1308;23070;-40
2023/01/14 01:32:46;;;;;;;7.30;4.30;;;;;;;6.31;89.18;98852.85;107817;1308;22307;-39
2023/01/14 01:35:11;;;;;;;9.70;4.10;;;;;;;6.33;89.02;98852.55;107838;1308;22398;-40
2023/01/14 01:37:37;;;;;;;10.20;4.50;;;;;;;6.36;89.03;98857.66;107812;1308;22409;-41
2023/01/14 01:40:03;;;;;;;9.10;4.60;;;;;;;6.28;88.36;98858.05;107814;1308;22259;-39
2023/01/14 01:42:33;;;;;;;11.00;4.10;;;;;;;6.28;88.10;98859.25;107871;1308;22711;-41
2023/01/14 01:45:18;;;;;;;7.40;3.60;;;;;;;6.25;87.93;98865.82;107841;1308;22248;-41
2023/01/14 01:47:44;;;;;;;7.40;3.60;;;;;;;6.20;87.53;98868.12;107829;1308;22256;-40
2023/01/14 01:50:10;;;;;;;8.00;3.40;;;;;;;6.20;87.25;98869.71;107833;1308;22881;-41
2023/01/14 01:52:35;;;;;;;5.60;3.40;;;;;;;6.24;87.35;98866.73;107841;1308;22223;-39
2023/01/14 01:55:06;;;;;;;7.10;3.80;;;;;;;6.28;87.62;98867.59;107827;1308;22227;-37
2023/01/14 01:57:32;;;;;;;10.00;3.60;;;;;;;6.29;87.27;98871.56;107814;1308;22323;-38
2023/01/14 02:00:01;;;;;;;8.40;3.90;;;;;;;6.32;87.13;98872.96;107821;1308;22953;-41
2023/01/14 02:02:28;;;;;;;8.90;3.70;;;;;;;6.36;87.02;98874.76;107815;1308;23207;-38
2023/01/14 02:04:53;;;;;;;7.20;3.50;;;;;;;6.34;86.63;98867.31;107833;1308;22271;-37
2023/01/14 02:07:21;;;;;;;4.50;3.00;;;;;;;6.38;86.81;98876.73;107817;1308;22500;-39
2023/01/14 02:09:59;;;;;;;6.20;3.50;;;;;;;6.35;86.23;98875.48;107814;1308;23062;-38
2023/01/14 02:12:40;;;;;;;7.30;3.50;;;;;;;6.38;86.17;98879.00;107803;1308;22223;-41
2023/01/14 02:15:23;;;;;;;7.20;3.40;;;;;;;6.33;85.96;98879.75;107837;1308;22256;-37
2023/01/14 02:18:06;;;;;;;7.80;3.30;;;;;;;6.30;85.53;98880.59;107839;1308;22258;-37
2023/01/14 02:21:26;;;;;;;6.40;3.30;;;;;;;6.34;85.78;98877.95;107823;1308;22714;-38
2023/01/14 02:24:17;;;;;;;5.80;3.30;;;;;;;6.36;85.72;98878.56;107173;1315;22365;-39
2023/01/14 02:27:03;;;;;;;7.90;2.90;;;;;;;6.34;85.82;98877.26;106677;1321;22290;-40
2023/01/14 02:29:40;;;;;;;7.00;3.40;;;;;;;6.31;85.54;98878.98;106648;1322;22264;-39
2023/01/14 02:32:32;;;;;;;7.10;3.90;;;;;;;6.34;85.73;98886.30;106663;1322;22301;-37
2023/01/14 02:35:00;;;;;;;8.10;3.70;;;;;;;6.34;85.30;98889.27;106682;1322;22283;-39
2023/01/14 02:37:52;;;;;;;7.70;3.10;;;;;;;6.34;85.24;98889.80;106666;1322;22250;-38
2023/01/14 02:44:10;;;;;;;6.90;3.00;;;;;;;6.36;85.32;98894.14;107483;1300;545778;-38
